Time;durP1;ratioP1;P1;durP2;ratioP2;P2;SDS_P1;SDS_P2;PMS_P1;PMS_P2;Temp;Humidity;BMP_temperature;BMP_pressure;BME280_temperature;BME280_humidity;BME280_pressure;Samples;Min_cycle;Max_cycle;Signal;HPM_P1;HPM_P2
2022/07/14 00:01:00;;;;;;;4.63;2.28;;;;;;;28.65;31.68;101589.47;4986289;28;20050;-75
2022/07/14 00:03:29;;;;;;;5.95;2.30;;;;;;;28.64;32.06;101593.31;4988237;28;20539;-75
2022/07/14 00:05:57;;;;;;;5.65;2.20;;;;;;;28.60;31.79;101599.50;4986019;28;20129;-75
2022/07/14 00:08:25;;;;;;;4.50;1.95;;;;;;;28.58;32.24;101590.47;4986769;28;20047;-75
2022/07/14 00:10:53;;;;;;;4.28;1.85;;;;;;;28.55;31.94;101599.25;4988670;28;20069;-74
2022/07/14 00:13:21;;;;;;;4.18;2.08;;;;;;;28.52;31.71;101594.06;4991985;28;20133;-75
2022/07/14 00:15:49;;;;;;;3.90;1.88;;;;;;;28.49;32.07;101603.72;4987577;28;20077;-75
2022/07/14 00:18:17;;;;;;;4.95;2.00;;;;;;;28.47;32.08;101610.56;4988441;28;20058;-75
2022/07/14 00:20:46;;;;;;;5.45;2.20;;;;;;;28.47;32.22;101607.78;4969575;28;20528;-75
2022/07/14 00:23:14;;;;;;;4.57;2.00;;;;;;;28.42;32.30;101605.56;4969282;28;20557;-75
2022/07/14 00:25:43;;;;;;;4.30;2.13;;;;;;;28.41;32.38;101601.06;4988209;28;20049;-75
2022/07/14 00:28:10;;;;;;;5.10;1.92;;;;;;;28.38;32.15;101596.75;4988249;28;20062;-75
2022/07/14 00:30:38;;;;;;;4.60;2.10;;;;;;;28.34;32.20;101588.94;4972252;28;20098;-75
2022/07/14 00:33:07;;;;;;;4.18;1.90;;;;;;;28.32;32.32;101591.97;4987374;28;20042;-75
2022/07/14 00:35:35;;;;;;;3.85;1.90;;;;;;;28.29;32.14;101589.56;4984891;28;20066;-75
2022/07/14 00:38:05;;;;;;;6.20;2.40;;;;;;;28.29;32.24;101595.16;4986521;28;20070;-75
2022/07/14 00:40:33;;;;;;;4.03;2.22;;;;;;;28.24;32.35;101585.66;4987560;28;20105;-74
2022/07/14 00:43:01;;;;;;;3.63;1.70;;;;;;;28.20;32.02;101587.97;4970042;28;20042;-75
2022/07/14 00:45:29;;;;;;;7.05;2.10;;;;;;;28.19;32.39;101593.75;4985802;28;20355;-74
2022/07/14 00:47:58;;;;;;;5.43;2.05;;;;;;;28.17;32.26;101599.53;4991002;28;20080;-75
2022/07/14 00:50:26;;;;;;;4.97;1.95;;;;;;;28.15;32.15;101595.19;4991138;28;20038;-75
2022/07/14 00:52:55;;;;;;;4.32;1.80;;;;;;;28.12;32.22;101598.38;4986889;28;20074;-75
2022/07/14 00:55:24;;;;;;;4.53;1.90;;;;;;;28.11;32.35;101586.34;4988302;28;20069;-75
2022/07/14 00:57:52;;;;;;;5.75;2.17;;;;;;;28.08;32.84;101583.09;4984578;28;20108;-74
2022/07/14 01:00:21;;;;;;;3.90;1.70;;;;;;;28.06;32.51;101586.09;4969311;28;20046;-74
2022/07/14 01:02:49;;;;;;;4.07;1.90;;;;;;;28.03;32.50;101581.75;4988135;28;20035;-74
2022/07/14 01:05:18;;;;;;;4.78;1.77;;;;;;;28.02;32.34;101582.81;4971603;28;20069;-74
2022/07/14 01:07:47;;;;;;;4.80;1.90;;;;;;;28.01;32.64;101583.00;4985393;28;20038;-75
2022/07/14 01:10:16;;;;;;;4.68;1.77;;;;;;;27.98;32.58;101575.06;4987238;28;20062;-75
2022/07/14 01:12:46;;;;;;;3.13;1.88;;;;;;;27.98;32.45;101586.22;4988228;28;20069;-75
2022/07/14 01:15:17;;;;;;;5.93;2.13;;;;;;;27.91;32.67;101576.91;4966979;28;20673;-75
2022/07/14 01:17:47;;;;;;;5.03;1.90;;;;;;;27.92;32.70;101584.22;4990455;28;20046;-75
2022/07/14 01:20:16;;;;;;;5.05;2.08;;;;;;;27.91;32.71;101582.50;4986241;28;20047;-74
2022/07/14 01:22:46;;;;;;;6.57;1.80;;;;;;;27.89;32.88;101579.91;4987334;28;20401;-75
2022/07/14 01:25:16;;;;;;;5.25;2.05;;;;;;;27.87;32.86;101584.81;4966367;28;20077;-75
2022/07/14 01:27:44;;;;;;;3.47;1.75;;;;;;;27.84;32.89;101575.94;4984994;28;20077;-75
2022/07/14 01:30:13;;;;;;;5.63;2.30;;;;;;;27.81;32.84;101573.56;4969607;28;20109;-74
2022/07/14 01:32:41;;;;;;;3.78;1.75;;;;;;;27.80;32.68;101569.91;4970648;28;20484;-74
2022/07/14 01:35:10;;;;;;;5.20;1.88;;;;;;;27.78;32.99;101574.81;4987826;28;20413;-75
2022/07/14 01:37:38;;;;;;;6.15;1.98;;;;;;;27.75;32.88;101578.03;4985977;28;20031;-75
2022/07/14 01:40:11;;;;;;;5.63;2.40;;;;;;;27.75;33.07;101569.66;4970463;28;20517;-75
2022/07/14 01:42:41;;;;;;;5.00;2.13;;;;;;;27.70;33.13;101576.88;4984383;28;20156;-74
2022/07/14 01:45:11;;;;;;;6.00;2.10;;;;;;;27.68;32.72;101588.22;4969157;28;20057;-75
2022/07/14 01:47:40;;;;;;;4.07;1.88;;;;;;;27.64;33.08;101586.91;4970448;28;20054;-75
2022/07/14 01:50:09;;;;;;;4.80;1.90;;;;;;;27.63;32.87;101602.78;4986848;28;20038;-75
2022/07/14 01:52:40;;;;;;;5.07;1.88;;;;;;;27.58;32.88;101605.31;4970230;28;20295;-75
2022/07/14 01:55:10;;;;;;;5.35;1.88;;;;;;;27.59;33.15;101607.00;4966298;28;20528;-75
2022/07/14 01:57:38;;;;;;;5.63;1.88;;;;;;;27.56;33.46;101603.75;4982235;28;20039;-75
2022/07/14 02:00:09;;;;;;;5.20;1.95;;;;;;;27.54;33.09;101601.16;4984476;28;20043;-75
2022/07/14 02:02:44;;;;;;;5.63;2.03;;;;;;;27.51;33.43;101590.34;4989711;28;20476;-75
2022/07/14 02:05:14;;;;;;;5.78;1.92;;;;;;;27.48;33.48;101578.75;4972199;28;20129;-75
2022/07/14 02:07:42;;;;;;;4.47;2.17;;;;;;;27.48;33.36;101581.53;4988187;28;20098;-74
2022/07/14 02:13:15;;;;;;;5.65;1.95;;;;;;;27.41;33.50;101569.44;4972939;28;20042;-75
2022/07/14 02:15:43;;;;;;;4.35;1.73;;;;;;;27.41;33.53;101558.28;4990166;28;20053;-75
2022/07/14 02:18:13;;;;;;;5.18;2.20;;;;;;;27.39;33.60;101566.81;4965970;28;20046;-75
2022/07/14 02:20:44;;;;;;;6.07;2.30;;;;;;;27.37;33.57;101559.69;4992719;28;20125;-75
2022/07/14 02:23:12;;;;;;;6.40;2.17;;;;;;;27.36;33.67;101558.84;4972461;28;20765;-75
2022/07/14 02:25:42;;;;;;;5.95;2.15;;;;;;;27.37;33.79;101557.78;4986236;28;20047;-75
2022/07/14 02:28:10;;;;;;;5.45;2.20;;;;;;;27.34;33.67;101565.69;4989396;28;20035;-74
2022/07/14 02:30:38;;;;;;;5.57;1.80;;;;;;;27.33;33.82;101572.31;4972252;28;20069;-75
2022/07/14 02:33:07;;;;;;;6.50;2.15;;;;;;;27.31;33.57;101554.91;4983762;28;20046;-75
2022/07/14 02:35:36;;;;;;;5.15;2.03;;;;;;;27.30;33.56;101550.41;4989226;28;20039;-74
2022/07/14 02:38:04;;;;;;;4.90;2.25;;;;;;;27.27;33.69;101552.50;4985815;28;20055;-75
2022/07/14 02:40:33;;;;;;;5.90;2.20;;;;;;;27.27;33.84;101554.44;4986433;28;20509;-74
2022/07/14 02:43:03;;;;;;;5.45;1.98;;;;;;;27.26;33.73;101561.09;4986406;28;20082;-74
2022/07/14 02:45:32;;;;;;;4.78;2.10;;;;;;;27.21;33.80;101550.50;4986971;28;20045;-75
2022/07/14 02:48:00;;;;;;;5.60;2.20;;;;;;;27.19;33.61;101547.03;4972426;28;20042;-74
2022/07/14 02:50:28;;;;;;;4.47;1.80;;;;;;;27.17;34.05;101551.97;4973448;28;20046;-75
2022/07/14 02:52:56;;;;;;;4.35;1.90;;;;;;;27.16;33.97;101572.53;4990144;28;20453;-75
2022/07/14 02:55:30;;;;;;;4.60;2.00;;;;;;;27.14;34.03;101571.84;4977063;28;20522;-75
2022/07/14 02:57:58;;;;;;;6.03;2.20;;;;;;;27.13;33.81;101577.63;4989044;28;20073;-75
2022/07/14 03:00:28;;;;;;;4.72;2.10;;;;;;;27.13;34.09;101578.50;4971842;28;20050;-75
2022/07/14 03:03:00;;;;;;;5.07;2.17;;;;;;;27.10;33.94;101578.00;4972654;28;20046;-74
2022/07/14 03:05:28;;;;;;;5.43;2.20;;;;;;;27.07;33.85;101584.84;4971081;28;20088;-75
2022/07/14 03:07:57;;;;;;;6.05;2.30;;;;;;;27.07;34.29;101583.97;4989790;28;20140;-75
2022/07/14 03:10:25;;;;;;;5.70;2.17;;;;;;;27.05;34.22;101577.72;4970580;28;20452;-75
2022/07/14 03:12:54;;;;;;;5.90;2.17;;;;;;;27.03;34.18;101574.25;4989860;28;20493;-75
2022/07/14 03:15:22;;;;;;;4.30;2.20;;;;;;;27.01;34.44;101568.91;4988849;28;20050;-75
2022/07/14 03:17:51;;;;;;;5.88;2.17;;;;;;;27.02;34.57;101570.59;4989031;28;20042;-75
2022/07/14 03:20:20;;;;;;;6.88;2.30;;;;;;;26.98;34.49;101579.56;4989202;28;20042;-75
2022/07/14 03:22:48;;;;;;;6.85;2.25;;;;;;;26.97;34.62;101575.91;4980502;28;20409;-75
2022/07/14 03:25:21;;;;;;;6.18;2.03;;;;;;;26.95;34.81;101564.06;4972004;28;20042;-75
2022/07/14 03:27:51;;;;;;;4.70;2.50;;;;;;;26.94;34.97;101551.19;4987755;28;20038;-74
2022/07/14 03:30:21;;;;;;;6.00;2.10;;;;;;;26.91;34.82;101543.22;4971860;28;20057;-74
2022/07/14 03:32:51;;;;;;;4.95;2.08;;;;;;;26.92;35.22;101541.31;4972316;28;20046;-75
2022/07/14 03:35:19;;;;;;;6.30;2.45;;;;;;;26.87;34.58;101550.19;4986593;28;20070;-75
2022/07/14 03:37:47;;;;;;;6.25;2.50;;;;;;;26.83;34.76;101544.16;4978073;28;20052;-74
2022/07/14 03:40:33;;;;;;;3.75;1.83;;;;;;;26.80;35.07;101557.59;4986473;28;20089;-75
2022/07/14 03:43:01;;;;;;;5.50;2.50;;;;;;;26.79;34.72;101562.31;4971776;28;20580;-75
2022/07/14 03:45:30;;;;;;;5.32;2.53;;;;;;;26.77;35.16;101556.06;4970427;28;20100;-74
2022/07/14 03:48:00;;;;;;;6.07;2.40;;;;;;;26.76;35.03;101553.47;4976171;28;20042;-75
2022/07/14 03:50:29;;;;;;;6.68;2.15;;;;;;;26.71;35.01;101551.25;4971660;28;20046;-74
2022/07/14 03:52:58;;;;;;;4.72;2.40;;;;;;;26.69;35.18;101561.72;4976706;28;20058;-74
2022/07/14 03:55:26;;;;;;;7.00;2.47;;;;;;;26.68;34.96;101554.44;4986064;28;20038;-74
2022/07/14 03:57:54;;;;;;;5.65;2.63;;;;;;;26.65;35.14;101549.25;4971993;28;20089;-74
2022/07/14 04:00:22;;;;;;;5.03;2.00;;;;;;;26.64;35.27;101553.06;4969567;28;20046;-74
2022/07/14 04:02:51;;;;;;;6.53;2.15;;;;;;;26.61;35.44;101544.22;4970634;28;20129;-74
2022/07/14 04:05:27;;;;;;;6.05;2.17;;;;;;;26.60;35.07;101543.38;4975160;28;20042;-74
2022/07/14 04:08:05;;;;;;;6.57;2.25;;;;;;;26.56;34.97;101532.78;4964143;28;20335;-74
2022/07/14 04:10:42;;;;;;;5.88;2.28;;;;;;;26.53;35.05;101543.25;4968900;28;20108;-74
2022/07/14 04:13:10;;;;;;;7.03;2.47;;;;;;;26.52;35.30;101535.94;4968617;28;20105;-74
2022/07/14 04:15:39;;;;;;;5.72;2.28;;;;;;;26.50;35.17;101549.22;4986717;28;20045;-73
2022/07/14 04:18:07;;;;;;;4.18;2.50;;;;;;;26.48;35.27;101542.09;4984548;28;20133;-74
2022/07/14 04:20:38;;;;;;;6.38;2.10;;;;;;;26.48;35.50;101547.69;4964595;28;20100;-73
2022/07/14 04:23:07;;;;;;;6.57;2.53;;;;;;;26.43;35.44;101545.47;4958005;28;20043;-74
2022/07/14 04:25:35;;;;;;;5.38;2.13;;;;;;;26.41;35.46;101547.56;4968313;28;20042;-74
2022/07/14 04:28:03;;;;;;;5.50;2.00;;;;;;;26.40;35.16;101547.75;4970649;28;20104;-74
2022/07/14 04:30:31;;;;;;;5.28;2.15;;;;;;;26.38;35.39;101550.72;4968278;28;20038;-73
2022/07/14 04:33:08;;;;;;;5.55;2.30;;;;;;;26.35;35.19;101556.69;4987851;28;20536;-74
2022/07/14 04:35:38;;;;;;;7.40;2.50;;;;;;;26.38;35.33;101558.22;4968433;28;20110;-74
2022/07/14 04:38:07;;;;;;;7.60;2.40;;;;;;;26.34;35.13;101556.88;4990170;28;20042;-74
2022/07/14 04:40:50;;;;;;;5.07;2.25;;;;;;;26.34;35.83;101560.53;4971272;28;20053;-74
2022/07/14 04:43:20;;;;;;;6.50;2.33;;;;;;;26.31;35.65;101571.16;4991463;28;20042;-75
2022/07/14 04:45:50;;;;;;;8.65;2.92;;;;;;;26.28;35.67;101569.59;4986263;28;20050;-75
2022/07/14 04:48:20;;;;;;;5.75;2.20;;;;;;;26.28;35.70;101572.38;4970885;28;20125;-74
2022/07/14 04:53:45;;;;;;;7.55;2.38;;;;;;;26.23;35.39;101566.50;4927059;28;20445;-75
2022/07/14 04:56:42;;;;;;;7.00;2.25;;;;;;;26.23;35.86;101577.63;4963200;28;20489;-75
2022/07/14 04:59:33;;;;;;;5.82;2.30;;;;;;;26.23;35.78;101560.06;4968971;28;20098;-75
2022/07/14 05:02:01;;;;;;;6.20;2.28;;;;;;;26.22;35.61;101567.56;4971166;28;20043;-74
2022/07/14 05:04:30;;;;;;;6.97;2.08;;;;;;;26.21;35.65;101560.25;4972092;28;20046;-75
2022/07/14 05:07:02;;;;;;;6.85;2.40;;;;;;;26.23;35.74;101560.06;4987362;28;20057;-75
2022/07/14 05:09:33;;;;;;;6.50;2.33;;;;;;;26.20;35.66;101550.16;4966564;28;20145;-75
2022/07/14 05:12:04;;;;;;;7.38;2.53;;;;;;;26.21;35.87;101562.16;4966680;28;20137;-77
2022/07/14 05:14:33;;;;;;;5.85;2.17;;;;;;;26.19;35.90;101564.28;4974192;28;20125;-75
2022/07/14 05:17:03;;;;;;;6.10;2.20;;;;;;;26.19;36.13;101562.34;4989051;28;20302;-74
2022/07/14 05:19:47;;;;;;;6.18;2.55;;;;;;;26.19;35.77;101558.72;4965265;28;20055;-75
2022/07/14 05:22:17;;;;;;;5.45;2.10;;;;;;;26.23;36.10;101560.94;4971504;28;20508;-75
2022/07/14 05:24:45;;;;;;;4.70;2.08;;;;;;;26.25;36.29;101564.41;4965934;28;20046;-75
2022/07/14 05:27:13;;;;;;;7.28;2.58;;;;;;;26.32;36.56;101561.75;4987629;28;20476;-77
2022/07/14 05:29:42;;;;;;;7.28;2.60;;;;;;;26.41;36.83;101557.84;4970758;28;20042;-77
2022/07/14 05:32:10;;;;;;;6.03;2.70;;;;;;;26.53;36.60;101565.53;4971826;28;21120;-79
2022/07/14 05:34:44;;;;;;;5.60;2.45;;;;;;;26.71;36.26;101567.97;4971173;28;20474;-80
2022/07/14 05:37:19;;;;;;;6.43;2.20;;;;;;;26.85;36.21;101558.75;4978406;28;20042;-84
2022/07/14 05:39:50;;;;;;;6.55;2.67;;;;;;;27.03;35.79;101563.09;4975044;28;20038;-77
2022/07/14 05:42:20;;;;;;;7.47;2.45;;;;;;;27.17;35.75;101563.13;4971059;28;20047;-76
2022/07/14 05:44:48;;;;;;;6.72;2.70;;;;;;;27.27;35.46;101560.00;4984226;28;20046;-74
2022/07/14 05:47:17;;;;;;;7.43;2.40;;;;;;;27.36;35.03;101567.19;4988341;28;20041;-73
2022/07/14 05:49:45;;;;;;;5.45;2.22;;;;;;;27.43;34.95;101570.06;4993535;28;20043;-76
2022/07/14 05:52:13;;;;;;;5.10;2.35;;;;;;;27.47;34.79;101569.50;4972545;28;20174;-75
2022/07/14 05:54:42;;;;;;;5.95;2.33;;;;;;;27.53;34.73;101577.13;4971082;28;20561;-75
2022/07/14 05:57:13;;;;;;;5.95;2.38;;;;;;;27.53;34.71;101567.84;4975918;28;20088;-75
2022/07/14 05:59:42;;;;;;;5.47;2.20;;;;;;;27.53;34.58;101571.53;4970441;28;20406;-76
2022/07/14 06:02:15;;;;;;;4.15;2.15;;;;;;;27.56;34.68;101562.78;4975157;28;20069;-76
2022/07/14 06:04:44;;;;;;;5.78;2.13;;;;;;;27.59;34.30;101556.78;4993261;28;20105;-76
2022/07/14 06:07:12;;;;;;;5.05;2.20;;;;;;;27.60;34.80;101555.72;4989958;28;20209;-76
2022/07/14 06:09:47;;;;;;;6.05;2.40;;;;;;;27.63;34.50;101563.72;4970842;28;20105;-76
2022/07/14 06:12:16;;;;;;;6.18;2.20;;;;;;;27.64;34.82;101578.53;4992253;28;20047;-76
2022/07/14 06:14:45;;;;;;;5.65;2.35;;;;;;;27.67;34.59;101574.50;4974740;28;20046;-75
2022/07/14 06:17:15;;;;;;;7.25;2.28;;;;;;;27.72;34.70;101585.91;4988327;28;20121;-75
2022/07/14 06:19:43;;;;;;;5.65;1.95;;;;;;;27.74;34.68;101586.59;4973202;28;20049;-76
2022/07/14 06:22:11;;;;;;;6.30;2.00;;;;;;;27.77;34.51;101588.97;4973130;28;21000;-76
2022/07/14 06:24:41;;;;;;;6.32;2.38;;;;;;;27.81;34.37;101581.94;4974318;28;20042;-76
2022/07/14 06:27:19;;;;;;;6.35;2.25;;;;;;;27.82;34.25;101581.75;4974139;28;20030;-75
2022/07/14 06:29:50;;;;;;;6.75;2.35;;;;;;;27.80;34.01;101572.72;4970874;28;20039;-75
2022/07/14 06:32:18;;;;;;;6.75;2.40;;;;;;;27.81;34.06;101577.25;4971086;28;20093;-75
2022/07/14 06:34:48;;;;;;;9.27;2.70;;;;;;;27.81;34.29;101591.19;4972739;28;20046;-75
2022/07/14 06:37:24;;;;;;;7.53;3.03;;;;;;;27.80;33.90;101583.00;4971178;28;20071;-75
2022/07/14 06:39:52;;;;;;;6.00;2.67;;;;;;;27.76;33.69;101581.66;4988071;28;20049;-75
2022/07/14 06:42:22;;;;;;;5.47;2.35;;;;;;;27.76;33.96;101587.25;4973315;28;20121;-74
2022/07/14 06:45:14;;;;;;;5.70;2.38;;;;;;;27.70;34.03;101588.03;4970772;28;20070;-74
2022/07/14 06:47:45;;;;;;;8.10;3.03;;;;;;;27.69;34.19;101591.88;4991923;28;20457;-74
2022/07/14 06:50:13;;;;;;;4.28;2.00;;;;;;;27.68;34.12;101591.03;4971482;28;20651;-75
2022/07/14 06:52:41;;;;;;;4.75;2.30;;;;;;;27.67;34.01;101591.25;4989619;28;20112;-74
2022/07/14 06:55:10;;;;;;;4.70;2.20;;;;;;;27.66;33.90;101587.59;4971958;28;20133;-73
2022/07/14 06:57:40;;;;;;;7.40;2.40;;;;;;;27.67;34.12;101588.44;4969874;28;20580;-77
2022/07/14 07:00:10;;;;;;;4.88;2.17;;;;;;;27.63;33.71;101580.47;4986079;28;20065;-76
2022/07/14 07:02:38;;;;;;;5.50;2.22;;;;;;;27.59;33.59;101576.31;4987603;28;20054;-77
2022/07/14 07:07:56;;;;;;;7.00;2.28;;;;;;;27.45;33.55;101584.69;4991188;28;20069;-76
2022/07/14 07:10:26;;;;;;;6.63;2.30;;;;;;;27.40;33.77;101582.50;4984452;28;20101;-82
2022/07/14 07:12:57;;;;;;;5.65;2.10;;;;;;;27.39;33.72;101579.91;4984952;28;20046;-79
2022/07/14 07:15:26;;;;;;;5.63;2.03;;;;;;;27.36;34.28;101564.41;4988389;28;20508;-77
2022/07/14 07:17:54;;;;;;;5.75;2.05;;;;;;;27.37;34.41;101563.38;4991128;28;20038;-77
2022/07/14 07:20:22;;;;;;;6.88;2.30;;;;;;;27.40;34.41;101565.78;4986310;28;20057;-78
2022/07/14 07:22:50;;;;;;;7.07;2.05;;;;;;;27.44;34.16;101566.22;4990540;28;20042;-77
2022/07/14 07:25:19;;;;;;;5.72;2.20;;;;;;;27.45;33.98;101571.63;4987779;28;20482;-77
2022/07/14 07:27:47;;;;;;;6.80;2.55;;;;;;;27.45;33.75;101568.81;4988757;28;20045;-76
2022/07/14 07:30:16;;;;;;;6.55;2.10;;;;;;;27.46;33.93;101569.69;4985900;28;20453;-77
2022/07/14 07:32:44;;;;;;;6.50;2.22;;;;;;;27.40;33.94;101574.13;4989393;28;20066;-77
2022/07/14 07:35:13;;;;;;;6.60;2.35;;;;;;;27.39;33.54;101564.03;4989262;28;20042;-77
2022/07/14 07:37:41;;;;;;;6.40;2.15;;;;;;;27.38;33.65;101565.09;4972690;28;20093;-77
2022/07/14 07:40:10;;;;;;;5.38;1.80;;;;;;;27.38;33.71;101570.66;4994743;28;20046;-77
2022/07/14 07:42:38;;;;;;;5.75;1.90;;;;;;;27.36;33.60;101577.50;4987510;28;20129;-78
2022/07/14 07:45:07;;;;;;;4.97;1.98;;;;;;;27.39;34.01;101575.19;4986814;28;20129;-78
2022/07/14 07:47:37;;;;;;;6.68;2.28;;;;;;;27.42;34.25;101572.03;4987050;28;20034;-78
2022/07/14 07:50:06;;;;;;;5.18;1.98;;;;;;;27.48;34.38;101578.75;4966804;28;20042;-76
2022/07/14 07:52:34;;;;;;;5.32;2.28;;;;;;;27.54;34.32;101573.25;4981044;28;20046;-76
2022/07/14 07:55:02;;;;;;;6.68;2.20;;;;;;;27.67;34.36;101569.78;4969799;28;20063;-78
2022/07/14 07:57:43;;;;;;;6.60;2.20;;;;;;;27.80;34.29;101569.91;4987772;28;20047;-78
2022/07/14 08:00:13;;;;;;;5.88;2.05;;;;;;;27.97;34.25;101568.59;4985876;28;20042;-77
2022/07/14 08:02:48;;;;;;;5.32;2.00;;;;;;;28.18;33.49;101566.88;4980963;28;20049;-77
2022/07/14 08:05:17;;;;;;;5.40;2.17;;;;;;;28.31;32.96;101555.84;4984261;28;20129;-77
2022/07/14 08:08:07;;;;;;;5.20;1.80;;;;;;;28.48;32.93;101554.50;4987608;28;20153;-76
2022/07/14 08:10:35;;;;;;;6.28;2.20;;;;;;;28.63;32.33;101554.38;4986613;28;20072;-76
2022/07/14 08:13:04;;;;;;;5.85;2.22;;;;;;;28.77;32.07;101545.06;4970003;28;20500;-76
2022/07/14 08:15:33;;;;;;;5.28;1.90;;;;;;;28.90;31.70;101536.75;4986872;28;20120;-76
2022/07/14 08:18:03;;;;;;;5.85;1.92;;;;;;;29.05;31.48;101531.03;4986783;28;20046;-76
2022/07/14 08:20:31;;;;;;;5.38;2.05;;;;;;;29.14;31.27;101533.44;4985436;28;20042;-77
2022/07/14 08:22:59;;;;;;;4.70;1.85;;;;;;;29.27;30.51;101529.84;4971606;28;20485;-77
2022/07/14 08:25:29;;;;;;;3.63;1.60;;;;;;;29.37;30.09;101533.16;4988457;28;20047;-77
2022/07/14 08:27:58;;;;;;;4.05;1.42;;;;;;;29.44;29.61;101530.38;4987388;28;20050;-76
2022/07/14 08:30:26;;;;;;;6.13;1.75;;;;;;;29.50;29.60;101521.13;4968832;28;20116;-77
2022/07/14 08:32:54;;;;;;;4.90;1.55;;;;;;;29.57;29.04;101524.81;4988408;28;20072;-77
2022/07/14 08:35:26;;;;;;;4.88;1.98;;;;;;;29.65;28.34;101526.56;4988866;28;20082;-77
2022/07/14 08:37:55;;;;;;;3.55;1.45;;;;;;;29.63;28.63;101521.19;4988922;28;20040;-77
2022/07/14 08:40:25;;;;;;;6.85;1.90;;;;;;;29.70;28.62;101515.59;4983546;28;20405;-77
2022/07/14 08:42:56;;;;;;;5.55;1.90;;;;;;;29.71;28.35;101518.19;4989336;28;20053;-76
2022/07/14 08:45:26;;;;;;;5.60;1.70;;;;;;;29.76;28.53;101525.94;4986643;28;20050;-77
2022/07/14 08:47:55;;;;;;;3.45;1.50;;;;;;;29.75;28.34;101516.66;4972803;28;20046;-77
2022/07/14 08:50:27;;;;;;;4.20;1.35;;;;;;;29.81;27.65;101517.78;4987233;28;20133;-78
2022/07/14 08:52:55;;;;;;;3.85;1.42;;;;;;;29.79;27.86;101517.97;4970810;28;20062;-77
2022/07/14 08:55:23;;;;;;;4.38;1.67;;;;;;;29.85;27.64;101516.25;4986810;28;20069;-76
2022/07/14 08:57:51;;;;;;;3.85;1.60;;;;;;;29.88;27.36;101525.09;4988627;28;20053;-76
2022/07/14 09:00:20;;;;;;;3.47;1.63;;;;;;;29.92;27.43;101519.94;4968259;28;20049;-76
2022/07/14 09:02:50;;;;;;;4.15;1.42;;;;;;;29.95;26.73;101519.53;4986951;28;20133;-75
2022/07/14 09:05:41;;;;;;;4.65;1.50;;;;;;;29.97;25.91;101514.59;4987626;28;20058;-76
2022/07/14 09:08:11;;;;;;;3.60;1.55;;;;;;;29.91;26.46;101515.41;4970456;28;20152;-76
2022/07/14 09:10:41;;;;;;;5.07;1.60;;;;;;;29.91;26.54;101518.19;4987959;28;20501;-76
2022/07/14 09:13:31;;;;;;;5.60;1.90;;;;;;;29.89;26.24;101523.19;4991152;28;20065;-77
2022/07/14 09:16:15;;;;;;;4.60;1.58;;;;;;;29.86;25.62;101516.06;4984265;28;20129;-77
2022/07/14 09:19:02;;;;;;;4.32;1.80;;;;;;;29.82;26.06;101519.47;4991270;28;20470;-78
2022/07/14 09:21:32;;;;;;;4.65;1.63;;;;;;;29.82;26.18;101520.34;4994928;28;20129;-78
2022/07/14 09:24:00;;;;;;;3.72;1.50;;;;;;;29.82;26.35;101520.34;4994200;28;20563;-78
2022/07/14 09:26:33;;;;;;;4.68;1.50;;;;;;;29.86;24.96;101521.66;4988897;28;20516;-77
2022/07/14 09:29:03;;;;;;;4.53;1.50;;;;;;;29.85;25.80;101521.84;4994021;28;20058;-77
2022/07/14 09:31:32;;;;;;;3.83;1.52;;;;;;;29.88;26.08;101524.25;4994384;28;20065;-77
2022/07/14 09:34:05;;;;;;;4.53;1.27;;;;;;;29.92;26.03;101524.66;4994200;28;20042;-77
2022/07/14 09:36:36;;;;;;;5.13;1.52;;;;;;;29.96;26.21;101517.63;4995685;28;20109;-78
2022/07/14 09:39:06;;;;;;;3.85;1.48;;;;;;;29.95;25.89;101519.53;4991298;28;20053;-78
2022/07/14 09:41:37;;;;;;;4.88;1.50;;;;;;;29.99;25.79;101509.63;4977153;28;20046;-79
2022/07/14 09:44:13;;;;;;;4.47;1.63;;;;;;;29.99;25.38;101512.44;4994031;28;20042;-78
2022/07/14 09:46:45;;;;;;;5.00;1.45;;;;;;;29.99;25.40;101509.63;4994623;28;20046;-78
2022/07/14 09:49:14;;;;;;;5.60;1.60;;;;;;;29.97;25.47;101502.53;4991188;28;20485;-78
2022/07/14 09:51:55;;;;;;;3.88;1.45;;;;;;;30.01;25.54;101504.69;4994450;28;20401;-78
2022/07/14 09:54:44;;;;;;;3.70;1.27;;;;;;;30.01;25.06;101510.28;4976863;28;20077;-78
2022/07/14 09:57:21;;;;;;;2.03;0.98;;;;;;;30.08;23.08;101504.69;4977200;28;20108;-77
2022/07/14 09:59:51;;;;;;;3.22;0.93;;;;;;;30.11;23.61;101509.84;4992876;28;20150;-79
2022/07/14 10:02:21;;;;;;;2.20;1.00;;;;;;;30.14;23.31;101507.47;4994580;28;20116;-79
2022/07/14 10:04:50;;;;;;;2.53;1.10;;;;;;;30.17;23.37;101515.47;4976053;28;20137;-76
2022/07/14 10:07:19;;;;;;;4.35;1.20;;;;;;;30.23;23.52;101514.59;4992884;28;20038;-76
2022/07/14 10:09:56;;;;;;;2.70;1.00;;;;;;;30.29;23.00;101518.50;4974896;28;20436;-76
2022/07/14 10:12:26;;;;;;;3.50;1.17;;;;;;;30.35;23.93;101517.63;4985362;28;20042;-76
2022/07/14 10:14:59;;;;;;;3.55;1.20;;;;;;;30.40;23.43;101505.75;4985848;28;20133;-76
2022/07/14 10:17:29;;;;;;;3.53;1.10;;;;;;;30.48;23.15;101505.50;4973719;28;20046;-77
2022/07/14 10:19:58;;;;;;;3.67;1.13;;;;;;;30.54;23.05;101513.97;4989388;28;20050;-76
2022/07/14 10:22:30;;;;;;;2.75;1.10;;;;;;;30.64;22.20;101522.78;4988821;28;20042;-77
2022/07/14 10:24:58;;;;;;;2.55;1.02;;;;;;;30.66;22.74;101513.28;4988689;28;20042;-76
2022/07/14 10:27:27;;;;;;;2.63;1.20;;;;;;;30.73;22.96;101506.59;4975292;28;20069;-76
2022/07/14 10:29:57;;;;;;;4.20;1.13;;;;;;;30.81;21.97;101500.75;4985309;28;20078;-76
2022/07/14 10:32:38;;;;;;;3.65;1.58;;;;;;;30.89;21.06;101505.25;4986673;28;20042;-76
2022/07/14 10:35:37;;;;;;;5.90;1.90;;;;;;;30.92;21.72;101507.63;4972005;28;20088;-77
2022/07/14 10:38:45;;;;;;;4.80;1.48;;;;;;;30.95;21.83;101508.06;4985407;28;20444;-77
2022/07/14 10:41:31;;;;;;;4.00;1.33;;;;;;;31.03;21.33;101504.16;4984960;28;20051;-77
2022/07/14 10:44:07;;;;;;;4.85;1.73;;;;;;;31.11;21.42;101505.88;4989051;28;20039;-76
2022/07/14 10:46:46;;;;;;;3.83;1.50;;;;;;;31.15;21.51;101504.31;4988741;28;20070;-76
2022/07/14 10:49:15;;;;;;;3.30;1.33;;;;;;;31.22;22.15;101497.59;4986058;28;20050;-76
2022/07/14 10:51:45;;;;;;;3.15;1.40;;;;;;;31.29;22.13;101498.47;4973098;28;20109;-77
2022/07/14 10:54:15;;;;;;;4.10;1.38;;;;;;;31.37;21.89;101492.59;4973205;28;20054;-76
2022/07/14 10:57:13;;;;;;;4.03;1.60;;;;;;;31.46;21.12;101501.63;4991646;28;20122;-76
2022/07/14 10:59:44;;;;;;;4.10;1.40;;;;;;;31.54;21.73;101498.53;4988709;28;20469;-76
2022/07/14 11:02:37;;;;;;;3.78;1.30;;;;;;;31.62;21.62;101489.88;4987765;28;20448;-76
2022/07/14 11:05:14;;;;;;;3.95;1.38;;;;;;;31.70;21.48;101489.63;4966409;28;20042;-76
2022/07/14 11:07:50;;;;;;;4.60;1.40;;;;;;;31.78;21.95;101479.19;4991581;28;20129;-75
2022/07/14 11:11:09;;;;;;;2.97;1.15;;;;;;;31.87;21.25;101487.13;4990516;28;20425;-76
2022/07/14 11:14:07;;;;;;;3.05;1.30;;;;;;;31.98;20.96;101488.31;4981357;28;20050;-76
2022/07/14 11:17:02;;;;;;;3.70;1.30;;;;;;;32.04;21.20;101479.81;4981070;28;20038;-76
2022/07/14 11:19:33;;;;;;;4.25;1.38;;;;;;;32.20;20.95;101484.06;4943454;28;20054;-76
2022/07/14 11:22:21;;;;;;;2.85;1.40;;;;;;;32.34;20.32;101479.19;4990992;28;20078;-76
2022/07/14 11:24:53;;;;;;;3.28;1.33;;;;;;;32.40;20.95;101481.94;4990505;28;20050;-76
2022/07/14 11:27:26;;;;;;;3.15;1.30;;;;;;;32.52;20.53;101475.56;4991958;28;20039;-76
2022/07/14 11:29:57;;;;;;;2.08;1.10;;;;;;;32.62;20.34;101484.28;4971791;28;20050;-76
2022/07/14 11:32:33;;;;;;;3.37;1.43;;;;;;;32.68;20.12;101481.44;4990840;28;20039;-76
2022/07/14 11:37:58;;;;;;;2.63;1.23;;;;;;;32.83;19.39;101486.69;4980918;28;20049;-76
2022/07/14 11:40:49;;;;;;;2.22;1.10;;;;;;;32.84;19.65;101492.09;4987938;28;20043;-76
2022/07/14 11:43:50;;;;;;;5.10;1.50;;;;;;;32.85;19.79;101495.78;4972726;28;20046;-76
2022/07/14 11:46:26;;;;;;;2.33;1.30;;;;;;;32.91;19.52;101492.00;4960684;28;20600;-76
2022/07/14 11:48:55;;;;;;;2.80;1.48;;;;;;;32.93;19.07;101487.03;4990495;28;20053;-76
2022/07/14 11:51:26;;;;;;;2.95;1.55;;;;;;;32.96;18.94;101497.78;4994077;28;20354;-76
2022/07/14 11:54:01;;;;;;;2.65;1.30;;;;;;;32.97;19.04;101491.06;4990304;28;20051;-76
2022/07/14 11:56:31;;;;;;;4.55;1.50;;;;;;;32.97;19.39;101493.88;4991032;28;20536;-76